Terminal Aerodrome Forecast
Issued by NWS

Home | Current Version | Previous Version | Text Only | Print | Product List | Glossary On
Versions: 1 2 3 4 5 6 7 8 9 10 11 12 13 14 15
000
FTUS45 KTFX 290916 AAA
TAFHLN
TAF AMD
KHLN 290916Z 2909/3006 26006KT P6SM OVC025
     FM291600 VRB05KT P6SM SCT050
     FM292300 VRB06KT P6SM VCSH SCT040 BKN070=

USA.gov is the U.S. government's official web portal to all federal, state and local government web resources and services.